Time;durP1;ratioP1;P1;durP2;ratioP2;P2;SDS_P1;SDS_P2;PMS_P1;PMS_P2;Temp;Humidity;BMP_temperature;BMP_pressure;BME280_temperature;BME280_humidity;BME280_pressure;Samples;Min_cycle;Max_cycle;Signal;HPM_P1;HPM_P2
2022/12/27 00:01:20;;;;;;;0.20;0.20;;;;;;;2.00;100.00;102113.97;5003154;28;20506;-72
2022/12/27 00:03:45;;;;;;;0.20;0.20;;;;;;;1.84;100.00;102109.91;5003648;28;20029;-72
2022/12/27 00:06:14;;;;;;;0.20;0.20;;;;;;;1.80;100.00;102104.69;5004569;28;20374;-72
2022/12/27 00:08:40;;;;;;;0.20;0.20;;;;;;;1.68;100.00;102081.13;4995638;28;21298;-73
2022/12/27 00:11:10;;;;;;;0.20;0.20;;;;;;;1.87;100.00;102109.84;4997108;28;20092;-73
2022/12/27 00:13:35;;;;;;;0.20;0.20;;;;;;;1.86;100.00;102116.91;4989418;28;20041;-72
2022/12/27 00:16:09;;;;;;;0.20;0.20;;;;;;;1.78;100.00;102119.72;5000859;28;20045;-73
2022/12/27 00:18:34;;;;;;;0.20;0.20;;;;;;;1.79;100.00;102120.59;4999535;28;20254;-73
2022/12/27 00:21:01;;;;;;;0.20;0.20;;;;;;;1.61;100.00;102130.66;5002957;28;20034;-73
2022/12/27 00:23:30;;;;;;;0.20;0.20;;;;;;;1.64;100.00;102127.09;4994895;28;20027;-72
2022/12/27 00:26:03;;;;;;;0.20;0.20;;;;;;;1.67;100.00;102132.31;4989322;28;20076;-72
2022/12/27 00:28:30;;;;;;;0.20;0.20;;;;;;;1.25;100.00;102074.88;4998186;28;20056;-73
2022/12/27 00:30:56;;;;;;;0.20;0.20;;;;;;;1.56;100.00;102129.00;4998971;28;20030;-72
2022/12/27 00:33:21;;;;;;;0.20;0.20;;;;;;;1.38;100.00;102117.88;4996133;28;20040;-72
2022/12/27 00:35:46;;;;;;;0.20;0.20;;;;;;;1.47;100.00;102135.34;5003673;28;20036;-72
2022/12/27 00:38:11;;;;;;;0.20;0.20;;;;;;;1.44;100.00;102135.41;5001079;28;20044;-72
2022/12/27 00:40:40;;;;;;;0.20;0.20;;;;;;;1.49;100.00;102145.00;4995328;28;20030;-72
2022/12/27 00:43:06;;;;;;;0.20;0.20;;;;;;;1.61;100.00;102135.94;4998335;28;20021;-72
2022/12/27 00:45:31;;;;;;;0.20;0.20;;;;;;;1.63;100.00;102130.63;4997979;28;20391;-72
2022/12/27 00:47:56;;;;;;;0.20;0.20;;;;;;;1.75;100.00;102137.47;4993937;28;20380;-72
2022/12/27 00:50:22;;;;;;;0.20;0.20;;;;;;;1.53;100.00;102108.75;4996267;28;20069;-72
2022/12/27 00:52:47;;;;;;;0.15;0.15;;;;;;;1.62;100.00;102113.00;4999402;28;20061;-73
2022/12/27 00:55:12;;;;;;;0.20;0.20;;;;;;;1.83;100.00;102139.94;4993624;28;20034;-73
2022/12/27 00:57:38;;;;;;;0.20;0.20;;;;;;;1.92;100.00;102143.28;4993083;28;20034;-72
2022/12/27 01:00:04;;;;;;;0.20;0.20;;;;;;;1.89;100.00;102140.69;4989641;28;20041;-72
2022/12/27 01:02:30;;;;;;;0.20;0.20;;;;;;;1.77;100.00;102133.00;4991836;28;20409;-72
2022/12/27 01:04:56;;;;;;;0.20;0.20;;;;;;;1.85;100.00;102154.03;4994714;28;20197;-73
2022/12/27 01:07:21;;;;;;;0.20;0.20;;;;;;;1.91;100.00;102160.06;4996249;28;20072;-73
2022/12/27 01:09:47;;;;;;;0.20;0.20;;;;;;;1.68;100.00;102122.59;4993643;28;20112;-72
2022/12/27 01:12:12;;;;;;;0.20;0.20;;;;;;;1.78;100.00;102142.69;4990794;28;20080;-72
2022/12/27 01:14:37;;;;;;;0.20;0.20;;;;;;;1.64;100.00;102138.53;4991742;28;21633;-73
2022/12/27 01:17:03;;;;;;;0.20;0.20;;;;;;;1.81;100.00;102166.47;4997487;28;20445;-72
2022/12/27 01:19:28;;;;;;;0.20;0.20;;;;;;;1.70;100.00;102148.16;5002755;28;20311;-72
2022/12/27 01:21:53;;;;;;;0.20;0.20;;;;;;;1.66;100.00;102138.53;4995180;28;20022;-72
2022/12/27 01:24:19;;;;;;;0.20;0.20;;;;;;;1.73;100.00;102155.16;4995471;28;20026;-72
2022/12/27 01:26:44;;;;;;;0.20;0.20;;;;;;;1.71;100.00;102171.09;5000352;28;20034;-72
2022/12/27 01:29:11;;;;;;;0.28;0.28;;;;;;;1.57;100.00;102138.69;4994529;28;20034;-71
2022/12/27 01:31:36;;;;;;;0.20;0.20;;;;;;;1.71;100.00;102176.38;4991647;28;20044;-72
2022/12/27 01:34:01;;;;;;;0.20;0.20;;;;;;;1.64;100.00;102156.22;4997463;28;20033;-72
2022/12/27 01:36:28;;;;;;;0.20;0.20;;;;;;;1.66;100.00;102165.00;4995102;28;20033;-72
2022/12/27 01:38:54;;;;;;;0.20;0.20;;;;;;;1.62;100.00;102144.78;4996442;28;20552;-73
2022/12/27 01:44:47;;;;;;;0.28;0.28;;;;;;;1.75;100.00;102183.34;4995666;28;20041;-72
2022/12/27 01:47:40;;;;;;;0.20;0.20;;;;;;;1.83;100.00;102196.47;4999298;28;20164;-72
2022/12/27 01:50:24;;;;;;;0.20;0.20;;;;;;;1.67;100.00;102166.75;4998772;28;20511;-72
2022/12/27 01:52:56;;;;;;;0.22;0.22;;;;;;;1.90;100.00;102186.59;4999131;28;20071;-72
2022/12/27 01:56:01;;;;;;;0.20;0.20;;;;;;;1.94;100.00;102198.88;4995768;28;20568;-72
2022/12/27 01:58:46;;;;;;;0.20;0.20;;;;;;;1.78;100.00;102182.44;4943070;28;20031;-72
2022/12/27 02:01:23;;;;;;;0.30;0.30;;;;;;;1.94;100.00;102202.41;4991256;28;20480;-73
2022/12/27 02:04:03;;;;;;;0.20;0.20;;;;;;;1.86;100.00;102201.66;4994222;28;20032;-73
2022/12/27 02:06:29;;;;;;;0.20;0.20;;;;;;;1.97;100.00;102209.44;4996349;28;20049;-72
2022/12/27 02:09:19;;;;;;;0.20;0.20;;;;;;;2.10;100.00;102212.72;4997531;28;20072;-72
2022/12/27 02:11:49;;;;;;;0.10;0.10;;;;;;;2.00;100.00;102201.41;4994539;28;20089;-72
2022/12/27 02:14:37;;;;;;;0.20;0.20;;;;;;;2.09;100.00;102208.31;5010742;28;20311;-73
2022/12/27 02:17:06;;;;;;;0.20;0.20;;;;;;;2.12;100.00;102210.88;4999388;28;20465;-72
2022/12/27 02:19:41;;;;;;;0.20;0.20;;;;;;;2.12;100.00;102216.16;4996791;28;20666;-72
2022/12/27 02:22:15;;;;;;;0.20;0.20;;;;;;;2.21;100.00;102210.69;4993665;28;20037;-72
2022/12/27 02:25:17;;;;;;;0.20;0.20;;;;;;;2.24;100.00;102218.59;4996597;28;20043;-72
2022/12/27 02:28:01;;;;;;;0.20;0.20;;;;;;;2.24;100.00;102223.88;4996948;28;21195;-72
2022/12/27 02:30:30;;;;;;;0.20;0.20;;;;;;;2.28;100.00;102232.63;4992815;28;20022;-72
2022/12/27 02:32:59;;;;;;;0.20;0.20;;;;;;;2.29;100.00;102210.53;4973679;28;20527;-71
2022/12/27 02:35:30;;;;;;;0.30;0.30;;;;;;;2.42;100.00;102223.53;4995727;28;20033;-72
2022/12/27 02:38:01;;;;;;;0.20;0.20;;;;;;;2.54;100.00;102226.78;4990165;28;20396;-72
2022/12/27 02:55:11;;;;;;;0.20;0.20;;;;;;;2.84;100.00;102250.00;5010398;28;20052;-71
2022/12/27 02:58:19;;;;;;;0.20;0.20;;;;;;;2.62;100.00;102261.09;4995530;28;20487;-71
2022/12/27 03:03:52;;;;;;;0.20;0.20;;;;;;;2.69;100.00;102261.81;5006219;28;20889;-72
2022/12/27 03:06:40;;;;;;;0.20;0.20;;;;;;;2.44;100.00;102248.25;5011102;28;20055;-72
2022/12/27 03:15:53;;;;;;;0.20;0.20;;;;;;;2.41;100.00;102257.09;5013540;28;20040;-71
2022/12/27 03:17:36;;;;;;;0.17;0.17;;;;;;;2.23;100.00;102230.09;4991584;28;20040;-71
2022/12/27 03:25:36;;;;;;;0.10;0.10;;;;;;;1.59;100.00;102197.78;4993794;28;20513;-71
2022/12/27 03:34:03;;;;;;;0.20;0.20;;;;;;;1.84;100.00;102250.28;5007138;28;20044;-71
2022/12/27 03:39:19;;;;;;;0.20;0.20;;;;;;;1.79;100.00;102247.72;4993571;28;20043;-72
2022/12/27 03:44:33;;;;;;;0.20;0.20;;;;;;;1.84;100.00;102243.22;4992036;28;20036;-71
2022/12/27 03:47:04;;;;;;;0.20;0.20;;;;;;;1.69;100.00;102223.19;4992425;28;20061;-71
2022/12/27 03:49:34;;;;;;;0.20;0.20;;;;;;;1.83;100.00;102254.72;4994879;28;20053;-71
2022/12/27 03:52:08;;;;;;;0.20;0.20;;;;;;;1.71;100.00;102247.88;4994025;28;20122;-72
2022/12/27 03:54:37;;;;;;;0.20;0.20;;;;;;;1.78;100.00;102252.13;5011533;28;20030;-71
2022/12/27 03:57:06;;;;;;;0.20;0.20;;;;;;;2.00;100.00;102272.94;4992600;28;20034;-73
2022/12/27 03:59:32;;;;;;;0.20;0.20;;;;;;;1.93;100.00;102274.81;5010753;28;20080;-71
2022/12/27 04:01:57;;;;;;;0.17;0.17;;;;;;;1.80;100.00;102238.88;4992627;28;20472;-72
2022/12/27 04:04:23;;;;;;;0.20;0.20;;;;;;;2.03;100.00;102269.38;4996605;28;20022;-72
2022/12/27 04:06:48;;;;;;;0.20;0.20;;;;;;;1.97;100.00;102269.47;4997027;28;20079;-72
2022/12/27 04:36:34;;;;;;;0.20;0.20;;;;;;;2.21;100.00;102270.78;4996815;28;20088;-72
2022/12/27 04:38:59;;;;;;;0.20;0.20;;;;;;;2.02;100.00;102241.97;4994547;28;20601;-74
2022/12/27 04:55:13;;;;;;;0.20;0.20;;;;;;;2.46;100.00;102281.75;5002146;28;20450;-72
2022/12/27 04:57:39;;;;;;;0.20;0.20;;;;;;;2.23;100.00;102258.38;5005014;28;20056;-72
2022/12/27 05:02:49;;;;;;;0.20;0.20;;;;;;;2.39;100.00;102265.09;5001220;28;20037;-72
2022/12/27 05:05:14;;;;;;;0.20;0.20;;;;;;;2.17;100.00;102263.78;5006904;28;20033;-72
2022/12/27 05:15:54;;;;;;;0.20;0.20;;;;;;;2.48;100.00;102306.47;5000191;28;20516;-73
2022/12/27 05:18:20;;;;;;;0.20;0.20;;;;;;;2.40;100.00;102303.97;4993616;28;20053;-73
2022/12/27 05:20:45;;;;;;;0.20;0.20;;;;;;;2.44;100.00;102291.50;5009635;28;20551;-73
2022/12/27 05:25:54;;;;;;;0.20;0.20;;;;;;;2.37;100.00;102305.81;5005033;28;20088;-72
2022/12/27 05:28:19;;;;;;;0.20;0.20;;;;;;;2.43;100.00;102302.16;5006000;28;20034;-73
2022/12/27 05:30:45;;;;;;;0.20;0.20;;;;;;;2.28;100.00;102276.84;4991174;28;20108;-72
2022/12/27 05:33:10;;;;;;;0.20;0.20;;;;;;;2.30;100.00;102305.03;4989881;28;20044;-72
2022/12/27 05:35:36;;;;;;;0.20;0.20;;;;;;;2.35;100.00;102305.84;5004093;28;20049;-73
2022/12/27 05:38:01;;;;;;;0.20;0.20;;;;;;;2.19;100.00;102299.09;4991560;28;20053;-73
2022/12/27 05:40:27;;;;;;;0.20;0.20;;;;;;;2.20;100.00;102317.59;4991049;28;20059;-72
2022/12/27 05:42:53;;;;;;;0.20;0.20;;;;;;;2.23;100.00;102312.25;4988626;28;20027;-72
2022/12/27 05:45:18;;;;;;;0.20;0.20;;;;;;;1.92;100.00;102294.25;4987317;28;20030;-73
2022/12/27 05:47:44;;;;;;;0.28;0.28;;;;;;;2.03;100.00;102333.81;5001141;28;20428;-72
2022/12/27 05:50:09;;;;;;;0.20;0.20;;;;;;;2.09;100.00;102332.84;5004505;28;20034;-72
2022/12/27 05:52:35;;;;;;;0.20;0.20;;;;;;;1.97;100.00;102315.41;5001782;28;20333;-73
2022/12/27 05:55:00;;;;;;;0.20;0.20;;;;;;;2.05;100.00;102336.44;5002931;28;20060;-72
2022/12/27 05:57:26;;;;;;;0.30;0.30;;;;;;;2.07;100.00;102340.81;4998475;28;20046;-75
2022/12/27 05:59:51;;;;;;;0.20;0.20;;;;;;;1.84;100.00;102309.44;5004182;28;20116;-73
2022/12/27 06:02:17;;;;;;;0.20;0.20;;;;;;;1.99;100.00;102328.59;5006030;28;20396;-72
2022/12/27 06:04:42;;;;;;;0.20;0.20;;;;;;;1.94;100.00;102316.31;4987457;28;20104;-72
2022/12/27 06:07:12;;;;;;;0.10;0.10;;;;;;;2.06;100.00;102332.91;5003649;28;20045;-72
2022/12/27 06:09:37;;;;;;;0.20;0.20;;;;;;;1.97;100.00;102327.75;5002325;28;20432;-72
2022/12/27 06:12:03;;;;;;;0.20;0.20;;;;;;;2.02;100.00;102321.47;5000311;28;20030;-72
2022/12/27 06:14:28;;;;;;;0.20;0.20;;;;;;;2.31;100.00;102351.84;5000751;28;20400;-72
2022/12/27 06:16:53;;;;;;;0.20;0.20;;;;;;;2.00;100.00;102295.91;5001482;28;20065;-73
2022/12/27 06:19:19;;;;;;;0.20;0.20;;;;;;;2.27;100.00;102352.81;5002638;28;20083;-72
2022/12/27 06:21:44;;;;;;;0.20;0.20;;;;;;;2.15;100.00;102332.72;4983260;28;20080;-72
2022/12/27 06:24:09;;;;;;;0.20;0.20;;;;;;;2.27;100.00;102346.66;4998580;28;20603;-72
2022/12/27 06:26:35;;;;;;;0.10;0.10;;;;;;;2.16;100.00;102349.50;5000647;28;20804;-72
2022/12/27 06:29:00;;;;;;;0.20;0.20;;;;;;;2.00;100.00;102325.91;4997564;28;20038;-73
2022/12/27 06:31:26;;;;;;;0.20;0.20;;;;;;;2.15;100.00;102353.91;4996941;28;20026;-72
2022/12/27 06:33:52;;;;;;;0.20;0.20;;;;;;;2.18;100.00;102350.34;5004955;28;20026;-73
2022/12/27 06:36:22;;;;;;;0.20;0.20;;;;;;;2.25;100.00;102347.53;5003142;28;20036;-72
2022/12/27 06:38:48;;;;;;;0.20;0.20;;;;;;;2.14;100.00;102349.50;5020815;28;20029;-72
2022/12/27 06:41:16;;;;;;;0.20;0.20;;;;;;;1.88;100.00;102320.84;5002223;28;20048;-73
2022/12/27 06:43:42;;;;;;;0.20;0.20;;;;;;;2.02;100.00;102331.19;5019494;28;20045;-73
2022/12/27 06:46:10;;;;;;;0.15;0.15;;;;;;;1.91;100.00;102310.19;5004416;28;20034;-74
2022/12/27 06:48:35;;;;;;;0.20;0.20;;;;;;;1.98;100.00;102334.81;4987057;28;22033;-73
2022/12/27 06:51:05;;;;;;;0.20;0.20;;;;;;;2.03;100.00;102344.41;5002452;28;20026;-72
2022/12/27 06:53:31;;;;;;;0.20;0.20;;;;;;;2.00;100.00;102347.09;5003838;28;20048;-72
2022/12/27 06:55:56;;;;;;;0.20;0.20;;;;;;;2.06;100.00;102364.69;5004156;28;20284;-73
2022/12/27 06:58:21;;;;;;;0.20;0.20;;;;;;;2.08;100.00;102361.09;5003788;28;20030;-73
2022/12/27 07:00:46;;;;;;;0.20;0.20;;;;;;;2.08;100.00;102345.19;4997477;28;20460;-73
2022/12/27 07:03:12;;;;;;;0.20;0.20;;;;;;;2.29;100.00;102369.56;5000630;28;20867;-74
2022/12/27 07:05:37;;;;;;;0.20;0.20;;;;;;;2.15;100.00;102348.59;4999177;28;20101;-74
2022/12/27 07:08:03;;;;;;;0.28;0.28;;;;;;;2.20;100.00;102364.44;5006454;28;20145;-73
2022/12/27 07:10:29;;;;;;;0.20;0.20;;;;;;;2.03;100.00;102348.84;4999710;28;20092;-73
2022/12/27 07:12:55;;;;;;;0.20;0.20;;;;;;;2.25;100.00;102378.50;5000279;28;20772;-73
2022/12/27 07:15:20;;;;;;;0.20;0.20;;;;;;;2.19;100.00;102376.81;5001679;28;20125;-73
2022/12/27 07:17:45;;;;;;;0.20;0.20;;;;;;;1.97;100.00;102359.53;4999272;28;20384;-73
2022/12/27 07:20:11;;;;;;;0.20;0.20;;;;;;;2.17;100.00;102383.03;4983518;28;20049;-73
2022/12/27 07:22:36;;;;;;;0.20;0.20;;;;;;;2.12;100.00;102384.91;4997647;28;20117;-73
2022/12/27 07:25:02;;;;;;;0.30;0.30;;;;;;;2.22;100.00;102379.41;4996755;28;20041;-72
2022/12/27 07:27:27;;;;;;;0.20;0.20;;;;;;;2.21;100.00;102393.56;4993285;28;20033;-73
2022/12/27 07:29:52;;;;;;;0.20;0.20;;;;;;;1.98;100.00;102375.44;4997576;28;20029;-73
2022/12/27 07:32:18;;;;;;;0.20;0.20;;;;;;;1.99;100.00;102355.09;4996834;28;20065;-72
2022/12/27 07:34:43;;;;;;;0.20;0.20;;;;;;;2.12;100.00;102403.44;4999724;28;20034;-73
2022/12/27 07:37:09;;;;;;;0.20;0.20;;;;;;;1.97;100.00;102388.69;5003844;28;20385;-74
2022/12/27 07:39:34;;;;;;;0.20;0.20;;;;;;;1.83;100.00;102367.72;4999639;28;20061;-74
2022/12/27 07:41:59;;;;;;;0.20;0.20;;;;;;;1.85;100.00;102384.47;4980474;28;20044;-74
2022/12/27 07:44:25;;;;;;;0.20;0.20;;;;;;;1.95;100.00;102399.31;4979769;28;20206;-74
2022/12/27 07:46:51;;;;;;;0.20;0.20;;;;;;;1.94;100.00;102406.38;4981751;28;20136;-74
2022/12/27 07:49:16;;;;;;;0.20;0.20;;;;;;;1.79;100.00;102385.44;4981771;28;20034;-75
2022/12/27 07:51:42;;;;;;;0.20;0.20;;;;;;;1.84;100.00;102396.84;5002010;28;20080;-73
2022/12/27 07:54:07;;;;;;;0.20;0.20;;;;;;;1.81;100.00;102410.13;5002754;28;20105;-73
2022/12/27 07:56:32;;;;;;;0.20;0.20;;;;;;;1.74;100.00;102397.88;5005650;28;20092;-73
2022/12/27 07:58:59;;;;;;;0.10;0.10;;;;;;;1.91;100.00;102414.38;5002833;28;20037;-72
2022/12/27 08:01:27;;;;;;;0.30;0.30;;;;;;;1.90;100.00;102419.72;4991905;28;20061;-73
2022/12/27 08:03:53;;;;;;;0.20;0.20;;;;;;;1.85;100.00;102405.66;4997571;28;20045;-73
2022/12/27 08:06:26;;;;;;;0.20;0.20;;;;;;;1.68;100.00;102380.31;4995704;28;20641;-73
2022/12/27 08:08:51;;;;;;;0.20;0.20;;;;;;;1.85;100.00;102430.38;4996967;28;20028;-75
2022/12/27 08:11:17;;;;;;;0.20;0.20;;;;;;;1.82;100.00;102416.28;4993983;28;20033;-74
2022/12/27 08:13:42;;;;;;;0.20;0.20;;;;;;;2.00;100.00;102439.84;4996861;28;20465;-73
2022/12/27 08:16:14;;;;;;;0.20;0.20;;;;;;;1.88;100.00;102446.19;4999069;28;20025;-74
2022/12/27 08:18:39;;;;;;;0.20;0.20;;;;;;;1.84;100.00;102448.94;4997335;28;20111;-74
2022/12/27 08:21:05;;;;;;;0.20;0.20;;;;;;;1.89;100.00;102439.16;4997213;28;20460;-73
2022/12/27 08:23:30;;;;;;;0.20;0.20;;;;;;;1.91;100.00;102435.56;4998931;28;20030;-73
2022/12/27 08:25:57;;;;;;;0.20;0.20;;;;;;;1.83;100.00;102436.59;4998314;28;20037;-73
2022/12/27 08:28:22;;;;;;;0.20;0.20;;;;;;;1.97;100.00;102439.00;4998630;28;20767;-73
2022/12/27 08:30:47;;;;;;;0.20;0.20;;;;;;;1.57;100.00;102411.38;5000887;28;20029;-73
2022/12/27 08:33:14;;;;;;;0.20;0.20;;;;;;;1.79;100.00;102422.53;4992541;28;20062;-74
2022/12/27 08:35:43;;;;;;;0.30;0.30;;;;;;;1.88;100.00;102448.84;4991776;28;20108;-74
2022/12/27 08:38:09;;;;;;;0.20;0.20;;;;;;;2.21;100.00;102451.88;4999661;28;20033;-73
2022/12/27 08:40:38;;;;;;;0.20;0.20;;;;;;;1.94;100.00;102430.22;5003679;28;20498;-74
2022/12/27 08:43:04;;;;;;;0.20;0.20;;;;;;;1.96;100.00;102438.16;5004117;28;20026;-74
2022/12/27 08:45:29;;;;;;;0.20;0.20;;;;;;;2.13;100.00;102437.00;4980026;28;20068;-73
2022/12/27 08:47:58;;;;;;;0.20;0.20;;;;;;;2.43;100.00;102454.13;4998422;28;20136;-75
2022/12/27 08:50:23;;;;;;;0.20;0.20;;;;;;;2.34;100.00;102455.19;4996112;28;20022;-75
2022/12/27 08:52:49;;;;;;;0.20;0.20;;;;;;;2.44;100.00;102466.50;4995341;28;20040;-74
2022/12/27 08:55:14;;;;;;;0.20;0.20;;;;;;;2.66;100.00;102436.94;4998362;28;20029;-74
2022/12/27 08:57:39;;;;;;;0.20;0.20;;;;;;;2.76;100.00;102445.63;4993905;28;20030;-74
2022/12/27 09:00:05;;;;;;;0.20;0.20;;;;;;;2.86;100.00;102441.84;5000044;28;20072;-73
2022/12/27 09:02:31;;;;;;;0.20;0.20;;;;;;;2.92;100.00;102435.53;4998576;28;20029;-73
2022/12/27 09:04:56;;;;;;;0.20;0.20;;;;;;;2.90;100.00;102437.38;4997415;28;20451;-73
2022/12/27 09:07:22;;;;;;;0.20;0.20;;;;;;;3.01;100.00;102443.34;4999720;28;20045;-74
2022/12/27 09:09:47;;;;;;;0.20;0.20;;;;;;;3.12;100.00;102443.09;4994280;28;20121;-74
2022/12/27 09:12:12;;;;;;;0.20;0.20;;;;;;;3.22;100.00;102435.81;5000029;28;20034;-72
2022/12/27 09:14:38;;;;;;;0.10;0.10;;;;;;;3.18;100.00;102437.69;5011861;28;20038;-74
2022/12/27 09:17:05;;;;;;;0.20;0.20;;;;;;;3.22;100.00;102423.44;5001861;28;20026;-75
2022/12/27 09:19:31;;;;;;;0.20;0.20;;;;;;;3.10;100.00;102429.88;4997683;28;20798;-75
2022/12/27 09:21:56;;;;;;;0.20;0.20;;;;;;;3.60;100.00;102426.16;5001161;28;20041;-74
2022/12/27 09:24:21;;;;;;;0.20;0.20;;;;;;;3.42;100.00;102432.75;4984719;28;20057;-74
2022/12/27 09:26:47;;;;;;;0.20;0.20;;;;;;;3.65;100.00;102439.31;4998923;28;20033;-75
2022/12/27 09:29:12;;;;;;;0.20;0.20;;;;;;;3.60;100.00;102434.97;5001147;28;20031;-74
2022/12/27 09:31:38;;;;;;;0.20;0.20;;;;;;;3.60;100.00;102432.31;5009840;28;20049;-75
2022/12/27 09:34:03;;;;;;;0.20;0.20;;;;;;;3.88;100.00;102429.00;4988965;28;20117;-74
2022/12/27 09:36:29;;;;;;;0.10;0.10;;;;;;;4.15;100.00;102439.88;5002056;28;20117;-75
2022/12/27 09:38:56;;;;;;;0.20;0.20;;;;;;;4.39;100.00;102455.25;5006706;28;20107;-74
2022/12/27 09:41:31;;;;;;;0.20;0.20;;;;;;;4.62;100.00;102452.00;5002577;28;20554;-74
2022/12/27 09:44:30;;;;;;;0.20;0.20;;;;;;;4.49;100.00;102460.28;5005738;28;20076;-72
2022/12/27 09:47:00;;;;;;;0.30;0.30;;;;;;;4.30;100.00;102420.00;5001866;28;20076;-74
2022/12/27 09:49:37;;;;;;;0.20;0.20;;;;;;;4.58;100.00;102460.97;4986431;28;20029;-75
2022/12/27 09:52:12;;;;;;;0.20;0.20;;;;;;;4.74;100.00;102440.16;5007027;28;20056;-75
2022/12/27 09:54:41;;;;;;;0.20;0.20;;;;;;;4.75;100.00;102474.69;5002437;28;20026;-75
2022/12/27 09:57:15;;;;;;;0.20;0.20;;;;;;;4.55;100.00;102435.31;5005200;28;20405;-74
2022/12/27 09:59:45;;;;;;;0.20;0.20;;;;;;;4.82;100.00;102467.41;5019699;28;20063;-77
2022/12/27 10:02:29;;;;;;;0.20;0.20;;;;;;;4.99;100.00;102480.25;4994213;28;20601;-75
2022/12/27 10:04:56;;;;;;;0.20;0.20;;;;;;;4.70;100.00;102465.94;5010322;28;20033;-74
2022/12/27 10:07:59;;;;;;;0.20;0.20;;;;;;;5.02;100.00;102479.31;5004927;28;20306;-74
2022/12/27 10:10:52;;;;;;;0.10;0.10;;;;;;;5.05;100.00;102490.72;5003428;28;20021;-74
2022/12/27 10:13:27;;;;;;;0.20;0.20;;;;;;;5.78;100.00;102477.06;5005652;28;20017;-74
2022/12/27 10:16:18;;;;;;;0.20;0.20;;;;;;;6.21;100.00;102481.06;4998641;28;20785;-75
2022/12/27 10:19:13;;;;;;;0.20;0.20;;;;;;;6.49;100.00;102480.09;4993105;28;20074;-74
2022/12/27 10:21:48;;;;;;;0.20;0.20;;;;;;;6.42;100.00;102467.91;4996020;28;20053;-74
2022/12/27 10:24:20;;;;;;;0.10;0.10;;;;;;;6.91;100.00;102473.31;5016229;28;20049;-73
2022/12/27 10:26:45;;;;;;;0.10;0.10;;;;;;;6.44;100.00;102472.25;5001785;28;20026;-73
2022/12/27 10:29:21;;;;;;;0.10;0.10;;;;;;;6.44;100.00;102464.25;4999119;28;20068;-73
2022/12/27 10:31:47;;;;;;;0.20;0.20;;;;;;;6.67;100.00;102443.88;4999205;28;20042;-74
2022/12/27 10:34:15;;;;;;;0.20;0.20;;;;;;;7.49;100.00;102474.72;5003787;28;20026;-73
2022/12/27 10:36:42;;;;;;;0.20;0.20;;;;;;;7.51;100.00;102470.19;4997997;28;20026;-74
2022/12/27 10:39:34;;;;;;;0.13;0.13;;;;;;;7.45;100.00;102473.09;5000806;28;20032;-75
2022/12/27 10:42:18;;;;;;;0.20;0.20;;;;;;;7.87;100.00;102482.16;4998174;28;20140;-75
2022/12/27 10:44:43;;;;;;;0.20;0.20;;;;;;;8.28;100.00;102455.53;4994791;28;20380;-73
2022/12/27 10:47:09;;;;;;;0.20;0.20;;;;;;;8.61;100.00;102464.88;4995984;28;20038;-72
2022/12/27 10:49:35;;;;;;;0.13;0.13;;;;;;;8.55;100.00;102449.97;5001873;28;20042;-74
2022/12/27 10:52:16;;;;;;;0.20;0.20;;;;;;;8.70;100.00;102460.00;4981113;28;20084;-75
2022/12/27 10:54:56;;;;;;;0.10;0.10;;;;;;;8.58;99.85;102455.19;4998892;28;20111;-73
2022/12/27 10:57:32;;;;;;;0.10;0.10;;;;;;;8.28;100.00;102468.03;4995843;28;20151;-75
2022/12/27 11:00:18;;;;;;;0.10;0.10;;;;;;;7.31;100.00;102476.28;5000042;28;20030;-75
2022/12/27 11:02:55;;;;;;;0.10;0.10;;;;;;;7.14;100.00;102469.78;5003324;28;20029;-75
2022/12/27 11:05:24;;;;;;;0.10;0.10;;;;;;;7.05;100.00;102470.13;5002730;28;20045;-73
2022/12/27 11:07:50;;;;;;;0.10;0.10;;;;;;;6.87;100.00;102472.56;5003190;28;20030;-74
2022/12/27 11:10:19;;;;;;;0.10;0.10;;;;;;;7.24;100.00;102469.47;5002227;28;20111;-74
2022/12/27 11:12:57;;;;;;;0.10;0.10;;;;;;;7.93;100.00;102461.41;5000804;28;20026;-74
2022/12/27 11:15:24;;;;;;;0.10;0.10;;;;;;;8.20;100.00;102441.59;5002025;28;20070;-75
2022/12/27 11:17:52;;;;;;;0.20;0.20;;;;;;;8.80;100.00;102452.41;4998883;28;20032;-74
2022/12/27 11:20:46;;;;;;;0.10;0.10;;;;;;;8.67;100.00;102433.34;5002357;28;20076;-75
2022/12/27 11:23:14;;;;;;;0.10;0.10;;;;;;;8.68;100.00;102431.56;4995195;28;20527;-74
2022/12/27 11:25:58;;;;;;;0.10;0.10;;;;;;;8.85;100.00;102436.16;5002180;28;20092;-73
2022/12/27 11:28:37;;;;;;;0.10;0.10;;;;;;;8.11;100.00;102435.69;4999767;28;20439;-73
2022/12/27 11:31:33;;;;;;;0.10;0.10;;;;;;;7.36;100.00;102439.59;5000003;28;20566;-73
2022/12/27 11:34:13;;;;;;;0.10;0.10;;;;;;;6.96;100.00;102463.34;4997596;28;20129;-74
2022/12/27 11:36:40;;;;;;;0.10;0.10;;;;;;;6.47;100.00;102455.28;4985768;28;20033;-74
2022/12/27 11:39:06;;;;;;;0.10;0.10;;;;;;;6.06;100.00;102455.75;5002381;28;20487;-74
2022/12/27 11:41:48;;;;;;;0.10;0.10;;;;;;;5.94;100.00;102443.66;5022828;28;20053;-74
2022/12/27 11:44:25;;;;;;;0.10;0.10;;;;;;;5.74;100.00;102446.97;4997591;28;20026;-74
2022/12/27 11:47:00;;;;;;;0.10;0.10;;;;;;;5.65;100.00;102441.91;4999401;28;20040;-73
2022/12/27 11:49:30;;;;;;;0.10;0.10;;;;;;;5.63;100.00;102433.09;5015370;28;20568;-73
2022/12/27 11:52:17;;;;;;;0.10;0.10;;;;;;;5.59;100.00;102431.44;4997968;28;20454;-74
2022/12/27 11:55:18;;;;;;;0.10;0.10;;;;;;;5.42;100.00;102427.53;5001959;28;20132;-74
2022/12/27 11:58:00;;;;;;;0.10;0.10;;;;;;;5.38;100.00;102433.84;5016602;28;20030;-74
2022/12/27 12:00:30;;;;;;;0.10;0.10;;;;;;;5.17;100.00;102438.03;5001067;28;20164;-74
2022/12/27 12:03:33;;;;;;;0.10;0.10;;;;;;;5.58;100.00;102430.59;5000683;28;20936;-73
2022/12/27 12:06:12;;;;;;;0.20;0.20;;;;;;;5.54;100.00;102419.16;5003390;28;20048;-75
2022/12/27 12:08:54;;;;;;;0.20;0.20;;;;;;;6.27;100.00;102411.47;5012194;28;20025;-74
2022/12/27 12:11:34;;;;;;;0.20;0.20;;;;;;;6.86;100.00;102416.56;5015993;28;20032;-76
2022/12/27 12:14:21;;;;;;;0.20;0.20;;;;;;;7.35;100.00;102404.00;5003011;28;20109;-74
2022/12/27 12:17:13;;;;;;;0.20;0.20;;;;;;;7.92;100.00;102410.66;5002571;28;20045;-75
2022/12/27 12:19:59;;;;;;;0.20;0.20;;;;;;;7.24;100.00;102416.88;4998698;28;20037;-75
2022/12/27 12:22:38;;;;;;;0.10;0.10;;;;;;;7.54;100.00;102405.94;5003919;28;20083;-73
2022/12/27 12:25:29;;;;;;;0.20;0.20;;;;;;;7.95;100.00;102402.50;5016270;28;20033;-74
2022/12/27 12:28:21;;;;;;;0.20;0.20;;;;;;;8.46;100.00;102407.50;5005895;28;20105;-74
2022/12/27 12:31:03;;;;;;;0.20;0.20;;;;;;;8.68;100.00;102392.25;5000479;28;20037;-74
2022/12/27 12:33:36;;;;;;;0.13;0.13;;;;;;;8.37;100.00;102400.75;4999459;28;20117;-75
2022/12/27 12:36:05;;;;;;;0.20;0.20;;;;;;;8.99;100.00;102390.00;5001953;28;20060;-75
2022/12/27 12:38:54;;;;;;;0.20;0.20;;;;;;;8.46;100.00;102391.44;5004511;28;20018;-75
2022/12/27 12:41:48;;;;;;;0.20;0.20;;;;;;;8.75;100.00;102384.78;4997735;28;20117;-75
2022/12/27 12:44:16;;;;;;;0.10;0.10;;;;;;;8.45;100.00;102377.19;5001205;28;20057;-73
2022/12/27 12:46:50;;;;;;;0.10;0.10;;;;;;;7.88;100.00;102345.72;5000504;28;20034;-75
2022/12/27 12:49:53;;;;;;;0.10;0.10;;;;;;;8.45;100.00;102366.47;5016649;28;20112;-73
2022/12/27 12:52:30;;;;;;;0.17;0.17;;;;;;;8.68;100.00;102375.31;5003034;28;20040;-74
2022/12/27 12:55:17;;;;;;;0.20;0.20;;;;;;;8.89;100.00;102370.78;5001731;28;20042;-75
2022/12/27 12:58:20;;;;;;;0.10;0.10;;;;;;;8.78;100.00;102357.03;4998314;28;20095;-75
2022/12/27 13:01:09;;;;;;;0.10;0.10;;;;;;;9.13;100.00;102370.59;5000396;28;20108;-75
2022/12/27 13:04:12;;;;;;;0.10;0.10;;;;;;;8.96;100.00;102356.16;4999249;28;20394;-75
2022/12/27 13:06:55;;;;;;;0.10;0.10;;;;;;;8.11;100.00;102360.78;4980979;28;20041;-74
2022/12/27 13:09:48;;;;;;;0.10;0.10;;;;;;;7.76;100.00;102354.25;5002953;28;20477;-75
2022/12/27 13:12:23;;;;;;;0.10;0.10;;;;;;;7.22;100.00;102354.63;5001244;28;20030;-73
2022/12/27 13:15:15;;;;;;;0.10;0.10;;;;;;;7.59;100.00;102345.16;5009525;28;20057;-76
2022/12/27 13:18:06;;;;;;;0.10;0.10;;;;;;;7.49;100.00;102333.06;5008704;28;20056;-74
2022/12/27 13:20:50;;;;;;;0.10;0.10;;;;;;;7.85;100.00;102332.50;5000917;28;20491;-75
2022/12/27 13:23:24;;;;;;;0.20;0.20;;;;;;;7.47;100.00;102327.81;5000968;28;20033;-75